This is the latest recevied weather packets stored in our database for station/object WG7B. If no packets are shown the sender has not sent any weather packets the latest 10 day(s).
| Time | Temp. | Humidity | Pressure | Rain* | Wind** | Luminosity | Snow |
|---|---|---|---|---|---|---|---|
| 1777180233 | 25° C | 26% | 1005.4 hPa | 0 mm | - | - | - |
| 1777177853 | 25° C | 25% | 1005.4 hPa | 0 mm | - | - | - |
| 1777177229 | 25° C | 25% | 1005.2 hPa | 0 mm | - | - | - |
| 1777176624 | 25.56° C | 24% | 1005.4 hPa | 0 mm | - | - | - |
| 1777174828 | 26.11° C | 23% | 1005.2 hPa | 0 mm | - | - | - |
| 1777173619 | 26.67° C | 23% | 1005.3 hPa | 0 mm | - | - | - |
| 1777171825 | 26.67° C | 23% | 1005.3 hPa | 0 mm | - | - | - |
| 1777170051 | 27.22° C | 22% | 1005 hPa | 0 mm | - | - | - |
| 1777164023 | 29.44° C | 20% | 1005.2 hPa | 0 mm | - | - | - |
| 1777162227 | 30° C | 21% | 1005.3 hPa | 0 mm | - | - | - |
| 1777159225 | 30° C | 18% | 1005.6 hPa | 0 mm | - | - | - |
| 1777152027 | 30.56° C | 20% | 1007.6 hPa | 0 mm | - | - | - |
| 1777151423 | 30° C | 21% | 1007.7 hPa | 0 mm | - | - | - |
| 1777147831 | 29.44° C | 20% | 1008.2 hPa | 0 mm | - | - | - |
| 1777147247 | 29.44° C | 21% | 1008.2 hPa | 0 mm | - | - | - |
| 1777146035 | 28.89° C | 21% | 1008.2 hPa | 0 mm | - | - | - |
| 1777143616 | 27.78° C | 22% | 1008.6 hPa | 0 mm | - | - | - |
| 1777140026 | 27.22° C | 23% | 1009.1 hPa | 0 mm | - | - | - |
| 1777139461 | 26.67° C | 23% | 1009.2 hPa | 0 mm | - | - | - |
| 1777134621 | 25.56° C | 26% | 1008.8 hPa | 0 mm | - | - | - |
| 1777132222 | 24.44° C | 27% | 1008.6 hPa | 0 mm | - | - | - |
| 1777126817 | 19.44° C | 32% | 1008.5 hPa | 0 mm | - | - | - |
| 1777126233 | 19.44° C | 32% | 1008.5 hPa | 0 mm | - | - | - |
| 1777125627 | 18.89° C | 33% | 1008.4 hPa | 0 mm | - | - | - |
| 1777119055 | 18.33° C | 33% | 1007.2 hPa | 0 mm | - | - | - |
* Rain latest hour (hover to see other rain measurements)
** Current wind speed in m/s (hover to see current wind gust speed)